sensor_id;sensor_type;location;lat;lon;timestamp;pressure;altitude;pressure_sealevel;temperature;humidity
51359;BME280;37448;51.588;7.248;2024-03-02T00:01:54;99464.84;;;6.98;87.16
51359;BME280;37448;51.588;7.248;2024-03-02T00:03:54;99462.34;;;6.94;89.82
51359;BME280;37448;51.588;7.248;2024-03-02T00:05:54;99451.13;;;6.93;88.63
51359;BME280;37448;51.588;7.248;2024-03-02T00:07:56;99454.56;;;6.95;88.92
51359;BME280;37448;51.588;7.248;2024-03-02T00:09:57;99468.41;;;6.94;88.20
51359;BME280;37448;51.588;7.248;2024-03-02T00:12:00;99462.31;;;6.95;88.64
51359;BME280;37448;51.588;7.248;2024-03-02T00:14:00;99463.13;;;6.97;89.10
51359;BME280;37448;51.588;7.248;2024-03-02T00:16:01;99459.66;;;6.98;87.70
51359;BME280;37448;51.588;7.248;2024-03-02T00:18:01;99464.78;;;7.00;90.57
51359;BME280;37448;51.588;7.248;2024-03-02T00:20:03;99460.50;;;6.99;91.77
51359;BME280;37448;51.588;7.248;2024-03-02T00:22:04;99458.88;;;6.95;89.91
51359;BME280;37448;51.588;7.248;2024-03-02T00:24:18;99458.75;;;7.01;86.84
51359;BME280;37448;51.588;7.248;2024-03-02T00:26:20;99447.47;;;7.03;87.41
51359;BME280;37448;51.588;7.248;2024-03-02T00:28:22;99461.25;;;7.06;86.52
51359;BME280;37448;51.588;7.248;2024-03-02T00:30:46;99458.75;;;7.02;86.11
51359;BME280;37448;51.588;7.248;2024-03-02T00:32:51;99460.44;;;7.03;87.19
51359;BME280;37448;51.588;7.248;2024-03-02T00:34:53;99455.13;;;7.10;84.21
51359;BME280;37448;51.588;7.248;2024-03-02T00:36:57;99462.91;;;7.10;86.65
51359;BME280;37448;51.588;7.248;2024-03-02T00:38:58;99447.41;;;7.07;88.10
51359;BME280;37448;51.588;7.248;2024-03-02T00:41:04;99453.47;;;7.07;87.43
51359;BME280;37448;51.588;7.248;2024-03-02T00:45:18;99452.66;;;7.03;84.59
51359;BME280;37448;51.588;7.248;2024-03-02T00:47:19;99443.94;;;7.08;83.65
51359;BME280;37448;51.588;7.248;2024-03-02T00:49:24;99442.22;;;7.07;84.48
51359;BME280;37448;51.588;7.248;2024-03-02T00:51:26;99443.19;;;7.02;87.79
51359;BME280;37448;51.588;7.248;2024-03-02T00:53:26;99438.94;;;6.98;90.13
51359;BME280;37448;51.588;7.248;2024-03-02T00:55:27;99435.53;;;6.96;85.79
51359;BME280;37448;51.588;7.248;2024-03-02T00:57:30;99435.53;;;6.96;85.16
51359;BME280;37448;51.588;7.248;2024-03-02T00:59:34;99437.28;;;6.94;88.39
51359;BME280;37448;51.588;7.248;2024-03-02T01:01:35;99431.19;;;6.97;84.90
51359;BME280;37448;51.588;7.248;2024-03-02T01:03:35;99437.22;;;6.97;82.92
51359;BME280;37448;51.588;7.248;2024-03-02T01:05:41;99431.94;;;7.03;81.76
51359;BME280;37448;51.588;7.248;2024-03-02T01:07:42;99438.03;;;6.99;85.41
51359;BME280;37448;51.588;7.248;2024-03-02T01:09:43;99435.59;;;6.93;85.96
51359;BME280;37448;51.588;7.248;2024-03-02T01:11:43;99425.22;;;6.93;87.26
51359;BME280;37448;51.588;7.248;2024-03-02T01:13:44;99423.53;;;6.92;88.66
51359;BME280;37448;51.588;7.248;2024-03-02T01:15:45;99420.16;;;6.87;88.67
51359;BME280;37448;51.588;7.248;2024-03-02T01:17:45;99419.34;;;6.85;88.53
51359;BME280;37448;51.588;7.248;2024-03-02T01:19:45;99418.44;;;6.86;88.29
51359;BME280;37448;51.588;7.248;2024-03-02T01:21:46;99421.09;;;6.84;87.82
51359;BME280;37448;51.588;7.248;2024-03-02T01:23:46;99422.94;;;6.79;90.21
51359;BME280;37448;51.588;7.248;2024-03-02T01:25:47;99426.44;;;6.77;90.80
51359;BME280;37448;51.588;7.248;2024-03-02T01:27:47;99425.59;;;6.74;92.04
51359;BME280;37448;51.588;7.248;2024-03-02T01:29:48;99426.50;;;6.72;89.67
51359;BME280;37448;51.588;7.248;2024-03-02T01:31:48;99420.56;;;6.68;90.19
51359;BME280;37448;51.588;7.248;2024-03-02T01:33:50;99416.22;;;6.69;89.93
51359;BME280;37448;51.588;7.248;2024-03-02T01:35:51;99425.78;;;6.65;90.95
51359;BME280;37448;51.588;7.248;2024-03-02T01:37:51;99421.41;;;6.69;91.71
51359;BME280;37448;51.588;7.248;2024-03-02T01:39:51;99420.56;;;6.68;90.44
51359;BME280;37448;51.588;7.248;2024-03-02T01:41:52;99427.47;;;6.66;93.91
51359;BME280;37448;51.588;7.248;2024-03-02T01:43:52;99425.78;;;6.65;94.89
51359;BME280;37448;51.588;7.248;2024-03-02T01:45:52;99417.19;;;6.65;92.48
51359;BME280;37448;51.588;7.248;2024-03-02T01:47:53;99422.28;;;6.68;91.99
51359;BME280;37448;51.588;7.248;2024-03-02T01:49:54;99411.03;;;6.69;90.62
51359;BME280;37448;51.588;7.248;2024-03-02T01:51:54;99417.78;;;6.76;89.97
51359;BME280;37448;51.588;7.248;2024-03-02T01:53:55;99411.69;;;6.79;91.17
51359;BME280;37448;51.588;7.248;2024-03-02T01:55:55;99409.97;;;6.79;90.21
51359;BME280;37448;51.588;7.248;2024-03-02T01:57:56;99415.09;;;6.81;88.12
51359;BME280;37448;51.588;7.248;2024-03-02T01:59:56;99415.16;;;6.79;91.08
51359;BME280;37448;51.588;7.248;2024-03-02T02:01:57;99416.06;;;6.77;91.85
51359;BME280;37448;51.588;7.248;2024-03-02T02:03:57;99416.13;;;6.73;93.75
51359;BME280;37448;51.588;7.248;2024-03-02T02:05:58;99416.16;;;6.72;89.96
51359;BME280;37448;51.588;7.248;2024-03-02T02:07:58;99411.84;;;6.71;91.13
51359;BME280;37448;51.588;7.248;2024-03-02T02:09:58;99405.84;;;6.70;89.97
51359;BME280;37448;51.588;7.248;2024-03-02T02:11:59;99410.22;;;6.68;90.42
51359;BME280;37448;51.588;7.248;2024-03-02T02:13:59;99414.50;;;6.68;90.03
51359;BME280;37448;51.588;7.248;2024-03-02T02:16:07;99407.56;;;6.70;86.71
51359;BME280;37448;51.588;7.248;2024-03-02T02:18:07;99404.97;;;6.71;87.13
51359;BME280;37448;51.588;7.248;2024-03-02T02:20:08;99404.97;;;6.71;87.72
51359;BME280;37448;51.588;7.248;2024-03-02T02:22:10;99400.59;;;6.72;86.14
51359;BME280;37448;51.588;7.248;2024-03-02T02:24:10;99401.47;;;6.72;89.25
51359;BME280;37448;51.588;7.248;2024-03-02T02:26:11;99399.69;;;6.74;91.40
51359;BME280;37448;51.588;7.248;2024-03-02T02:28:12;99404.81;;;6.78;86.45
51359;BME280;37448;51.588;7.248;2024-03-02T02:30:13;99397.88;;;6.78;89.67
51359;BME280;37448;51.588;7.248;2024-03-02T02:32:13;99397.88;;;6.80;85.82
51359;BME280;37448;51.588;7.248;2024-03-02T02:34:14;99391.84;;;6.79;88.43
51359;BME280;37448;51.588;7.248;2024-03-02T02:36:15;99388.41;;;6.77;87.40
51359;BME280;37448;51.588;7.248;2024-03-02T02:38:15;99385.78;;;6.79;88.99
51359;BME280;37448;51.588;7.248;2024-03-02T02:40:16;99387.50;;;6.80;87.85
51359;BME280;37448;51.588;7.248;2024-03-02T02:42:19;99392.69;;;6.80;88.99
51359;BME280;37448;51.588;7.248;2024-03-02T02:44:19;99383.94;;;6.84;89.61
51359;BME280;37448;51.588;7.248;2024-03-02T02:46:19;99390.84;;;6.85;87.66
51359;BME280;37448;51.588;7.248;2024-03-02T02:48:19;99389.88;;;6.89;91.87
51359;BME280;37448;51.588;7.248;2024-03-02T02:50:20;99388.13;;;6.91;90.32
51359;BME280;37448;51.588;7.248;2024-03-02T02:52:21;99385.50;;;6.93;90.87
51359;BME280;37448;51.588;7.248;2024-03-02T02:54:21;99385.53;;;6.91;87.15
51359;BME280;37448;51.588;7.248;2024-03-02T02:56:21;99388.88;;;6.96;89.42
51359;BME280;37448;51.588;7.248;2024-03-02T02:58:22;99390.56;;;6.97;89.60
51359;BME280;37448;51.588;7.248;2024-03-02T03:00:22;99382.81;;;6.97;91.26
51359;BME280;37448;51.588;7.248;2024-03-02T03:02:23;99387.94;;;6.99;90.66
51359;BME280;37448;51.588;7.248;2024-03-02T03:04:23;99389.69;;;6.98;90.80
51359;BME280;37448;51.588;7.248;2024-03-02T03:06:24;99390.50;;;7.00;91.10
51359;BME280;37448;51.588;7.248;2024-03-02T03:08:24;99388.78;;;7.01;88.46
51359;BME280;37448;51.588;7.248;2024-03-02T03:10:24;99387.09;;;6.98;83.88
51359;BME280;37448;51.588;7.248;2024-03-02T03:12:26;99384.47;;;7.01;89.41
51359;BME280;37448;51.588;7.248;2024-03-02T03:14:27;99392.25;;;7.01;84.76
51359;BME280;37448;51.588;7.248;2024-03-02T03:16:27;99383.56;;;7.02;88.01
51359;BME280;37448;51.588;7.248;2024-03-02T03:18:27;99380.97;;;7.02;84.75
51359;BME280;37448;51.588;7.248;2024-03-02T03:20:28;99384.44;;;7.03;85.66
51359;BME280;37448;51.588;7.248;2024-03-02T03:22:28;99377.47;;;7.05;86.31
51359;BME280;37448;51.588;7.248;2024-03-02T03:24:29;99379.25;;;7.03;87.67
51359;BME280;37448;51.588;7.248;2024-03-02T03:26:29;99380.13;;;7.00;86.93
51359;BME280;37448;51.588;7.248;2024-03-02T03:28:30;99378.41;;;7.02;90.63
51359;BME280;37448;51.588;7.248;2024-03-02T03:30:30;99380.13;;;7.00;86.20
51359;BME280;37448;51.588;7.248;2024-03-02T03:32:30;99380.13;;;7.00;89.80
51359;BME280;37448;51.588;7.248;2024-03-02T03:34:34;99382.63;;;7.07;86.27
51359;BME280;37448;51.588;7.248;2024-03-02T03:36:35;99387.78;;;7.08;90.65
51359;BME280;37448;51.588;7.248;2024-03-02T03:38:35;99380.03;;;7.07;87.39
51359;BME280;37448;51.588;7.248;2024-03-02T03:40:35;99388.63;;;7.09;88.06
51359;BME280;37448;51.588;7.248;2024-03-02T03:42:36;99381.66;;;7.11;88.15
51359;BME280;37448;51.588;7.248;2024-03-02T03:44:37;99384.25;;;7.11;87.60
51359;BME280;37448;51.588;7.248;2024-03-02T03:46:37;99384.16;;;7.14;89.92
51359;BME280;37448;51.588;7.248;2024-03-02T03:48:37;99385.94;;;7.12;88.26
51359;BME280;37448;51.588;7.248;2024-03-02T03:50:38;99392.84;;;7.13;91.43
51359;BME280;37448;51.588;7.248;2024-03-02T03:52:38;99389.44;;;7.11;90.61
51359;BME280;37448;51.588;7.248;2024-03-02T03:54:38;99392.06;;;7.09;91.88
51359;BME280;37448;51.588;7.248;2024-03-02T03:56:39;99403.31;;;7.08;92.39
51359;BME280;37448;51.588;7.248;2024-03-02T03:58:39;99392.91;;;7.10;90.46
51359;BME280;37448;51.588;7.248;2024-03-02T04:00:39;99396.44;;;7.07;89.26
51359;BME280;37448;51.588;7.248;2024-03-02T04:02:40;99398.16;;;7.08;91.21
51359;BME280;37448;51.588;7.248;2024-03-02T04:04:40;99397.19;;;7.11;93.74
51359;BME280;37448;51.588;7.248;2024-03-02T04:06:40;99398.25;;;7.03;89.70
51359;BME280;37448;51.588;7.248;2024-03-02T04:08:41;99399.06;;;7.06;91.64
51359;BME280;37448;51.588;7.248;2024-03-02T04:10:41;99397.34;;;7.05;94.20
51359;BME280;37448;51.588;7.248;2024-03-02T04:12:42;99400.94;;;6.97;93.33
51359;BME280;37448;51.588;7.248;2024-03-02T04:14:42;99402.72;;;6.95;94.82
51359;BME280;37448;51.588;7.248;2024-03-02T04:16:43;99401.09;;;6.91;96.01
51359;BME280;37448;51.588;7.248;2024-03-02T04:18:43;99401.13;;;6.88;95.17
51359;BME280;37448;51.588;7.248;2024-03-02T04:20:44;99392.59;;;6.83;95.64
51359;BME280;37448;51.588;7.248;2024-03-02T04:22:44;99397.94;;;6.77;91.10
51359;BME280;37448;51.588;7.248;2024-03-02T04:24:44;99395.44;;;6.72;91.05
51359;BME280;37448;51.588;7.248;2024-03-02T04:26:45;99394.59;;;6.71;95.65
51359;BME280;37448;51.588;7.248;2024-03-02T04:28:45;99398.06;;;6.70;90.90
51359;BME280;37448;51.588;7.248;2024-03-02T04:30:45;99398.88;;;6.72;95.22
51359;BME280;37448;51.588;7.248;2024-03-02T04:32:46;99399.78;;;6.70;93.36
51359;BME280;37448;51.588;7.248;2024-03-02T04:34:47;99396.38;;;6.69;93.67
51359;BME280;37448;51.588;7.248;2024-03-02T04:36:47;99398.84;;;6.74;93.01
51359;BME280;37448;51.588;7.248;2024-03-02T04:38:47;99391.13;;;6.71;92.95
51359;BME280;37448;51.588;7.248;2024-03-02T04:40:48;99398.91;;;6.71;89.54
51359;BME280;37448;51.588;7.248;2024-03-02T04:42:48;99406.66;;;6.72;90.86
51359;BME280;37448;51.588;7.248;2024-03-02T04:44:49;99408.28;;;6.77;91.71
51359;BME280;37448;51.588;7.248;2024-03-02T04:46:49;99408.38;;;6.73;92.88
51359;BME280;37448;51.588;7.248;2024-03-02T04:48:49;99406.59;;;6.75;94.48
51359;BME280;37448;51.588;7.248;2024-03-02T04:50:55;99424.00;;;6.69;90.46
51359;BME280;37448;51.588;7.248;2024-03-02T04:52:55;99416.22;;;6.69;91.17
51359;BME280;37448;51.588;7.248;2024-03-02T04:54:55;99421.50;;;6.64;90.79
51359;BME280;37448;51.588;7.248;2024-03-02T04:57:11;99422.38;;;6.63;93.14
51359;BME280;37448;51.588;7.248;2024-03-02T04:59:11;99417.19;;;6.63;92.76
51359;BME280;37448;51.588;7.248;2024-03-02T05:01:11;99412.97;;;6.59;89.12
51359;BME280;37448;51.588;7.248;2024-03-02T05:03:12;99421.56;;;6.61;93.85
51359;BME280;37448;51.588;7.248;2024-03-02T05:05:13;99420.72;;;6.60;89.88
51359;BME280;37448;51.588;7.248;2024-03-02T05:07:15;99413.78;;;6.61;92.99
51359;BME280;37448;51.588;7.248;2024-03-02T05:09:16;99421.63;;;6.58;93.32
51359;BME280;37448;51.588;7.248;2024-03-02T05:11:16;99413.97;;;6.52;96.47
51359;BME280;37448;51.588;7.248;2024-03-02T05:13:39;99420.19;;;6.44;95.70
51359;BME280;37448;51.588;7.248;2024-03-02T05:15:39;99433.16;;;6.41;94.35
51359;BME280;37448;51.588;7.248;2024-03-02T05:17:41;99429.84;;;6.35;93.29
51359;BME280;37448;51.588;7.248;2024-03-02T05:19:45;99426.47;;;6.31;92.58
51359;BME280;37448;51.588;7.248;2024-03-02T05:21:45;99424.75;;;6.30;95.89
51359;BME280;37448;51.588;7.248;2024-03-02T05:23:45;99413.66;;;6.23;90.91
51359;BME280;37448;51.588;7.248;2024-03-02T05:25:46;99418.81;;;6.25;93.93
51359;BME280;37448;51.588;7.248;2024-03-02T05:27:46;99416.38;;;6.19;95.51
51359;BME280;37448;51.588;7.248;2024-03-02T05:29:46;99410.31;;;6.20;94.39
51359;BME280;37448;51.588;7.248;2024-03-02T05:31:48;99408.59;;;6.19;93.04
51359;BME280;37448;51.588;7.248;2024-03-02T05:33:48;99420.59;;;6.23;93.36
51359;BME280;37448;51.588;7.248;2024-03-02T05:35:49;99413.72;;;6.22;93.47
51359;BME280;37448;51.588;7.248;2024-03-02T05:37:52;99418.00;;;6.23;90.78
51359;BME280;37448;51.588;7.248;2024-03-02T05:39:53;99422.28;;;6.24;91.16
51359;BME280;37448;51.588;7.248;2024-03-02T05:41:53;99430.13;;;6.21;93.47
51359;BME280;37448;51.588;7.248;2024-03-02T05:43:54;99429.31;;;6.19;90.12
51359;BME280;37448;51.588;7.248;2024-03-02T05:45:54;99437.09;;;6.15;93.17
51359;BME280;37448;51.588;7.248;2024-03-02T05:47:55;99440.63;;;6.11;94.95
51359;BME280;37448;51.588;7.248;2024-03-02T05:49:55;99435.44;;;6.13;92.76
51359;BME280;37448;51.588;7.248;2024-03-02T05:51:56;99436.38;;;6.09;95.57
51359;BME280;37448;51.588;7.248;2024-03-02T05:53:56;99419.97;;;6.10;93.43
51359;BME280;37448;51.588;7.248;2024-03-02T05:55:56;99426.88;;;6.09;91.38
51359;BME280;37448;51.588;7.248;2024-03-02T05:57:57;99418.22;;;6.10;93.94
51359;BME280;37448;51.588;7.248;2024-03-02T06:00:06;99423.34;;;6.13;90.49
51359;BME280;37448;51.588;7.248;2024-03-02T06:02:12;99425.03;;;6.14;87.12
51359;BME280;37448;51.588;7.248;2024-03-02T06:04:13;99423.31;;;6.15;89.90
51359;BME280;37448;51.588;7.248;2024-03-02T06:06:14;99427.56;;;6.17;89.75
51359;BME280;37448;51.588;7.248;2024-03-02T06:08:14;99437.13;;;6.14;90.77
51359;BME280;37448;51.588;7.248;2024-03-02T06:10:15;99443.16;;;6.14;90.66
51359;BME280;37448;51.588;7.248;2024-03-02T06:12:15;99443.19;;;6.13;88.58
51359;BME280;37448;51.588;7.248;2024-03-02T06:14:16;99440.63;;;6.13;91.15
51359;BME280;37448;51.588;7.248;2024-03-02T06:16:16;99434.63;;;6.11;91.95
51359;BME280;37448;51.588;7.248;2024-03-02T06:18:17;99447.56;;;6.09;88.53
51359;BME280;37448;51.588;7.248;2024-03-02T06:20:17;99441.56;;;6.07;93.49
51359;BME280;37448;51.588;7.248;2024-03-02T06:22:17;99440.69;;;6.08;91.25
51359;BME280;37448;51.588;7.248;2024-03-02T06:24:19;99439.81;;;6.09;91.33
51359;BME280;37448;51.588;7.248;2024-03-02T06:26:20;99450.16;;;6.11;92.02
51359;BME280;37448;51.588;7.248;2024-03-02T06:28:20;99450.97;;;6.13;93.53
51359;BME280;37448;51.588;7.248;2024-03-02T06:30:20;99451.75;;;6.16;88.58
51359;BME280;37448;51.588;7.248;2024-03-02T06:32:21;99450.91;;;6.14;90.46
51359;BME280;37448;51.588;7.248;2024-03-02T06:34:23;99456.88;;;6.20;94.20
51359;BME280;37448;51.588;7.248;2024-03-02T06:36:23;99463.72;;;6.22;90.62
51359;BME280;37448;51.588;7.248;2024-03-02T06:38:24;99463.72;;;6.22;93.01
51359;BME280;37448;51.588;7.248;2024-03-02T06:40:24;99462.94;;;6.19;92.50
51359;BME280;37448;51.588;7.248;2024-03-02T06:42:24;99469.78;;;6.21;90.02
51359;BME280;37448;51.588;7.248;2024-03-02T06:44:25;99473.19;;;6.25;92.68
51359;BME280;37448;51.588;7.248;2024-03-02T06:46:25;99474.94;;;6.23;91.58
51359;BME280;37448;51.588;7.248;2024-03-02T06:48:26;99479.19;;;6.25;92.89
51359;BME280;37448;51.588;7.248;2024-03-02T06:50:26;99485.25;;;6.26;93.36
51359;BME280;37448;51.588;7.248;2024-03-02T06:52:27;99482.59;;;6.30;91.85
51359;BME280;37448;51.588;7.248;2024-03-02T06:54:27;99483.41;;;6.32;93.42
51359;BME280;37448;51.588;7.248;2024-03-02T06:56:27;99484.19;;;6.36;89.01
51359;BME280;37448;51.588;7.248;2024-03-02T06:58:28;99490.22;;;6.37;93.53
51359;BME280;37448;51.588;7.248;2024-03-02T07:00:28;99494.59;;;6.35;91.42
51359;BME280;37448;51.588;7.248;2024-03-02T07:02:29;99486.72;;;6.39;94.73
51359;BME280;37448;51.588;7.248;2024-03-02T07:04:29;99494.47;;;6.39;91.74
51359;BME280;37448;51.588;7.248;2024-03-02T07:06:29;99499.56;;;6.45;95.32
51359;BME280;37448;51.588;7.248;2024-03-02T07:08:30;99489.16;;;6.47;94.34
51359;BME280;37448;51.588;7.248;2024-03-02T07:10:30;99500.44;;;6.44;91.98
51359;BME280;37448;51.588;7.248;2024-03-02T07:12:31;99497.75;;;6.51;93.19
51359;BME280;37448;51.588;7.248;2024-03-02T07:14:31;99490.78;;;6.53;93.49
51359;BME280;37448;51.588;7.248;2024-03-02T07:16:50;99503.66;;;6.57;90.02
51359;BME280;37448;51.588;7.248;2024-03-02T07:18:50;99490.59;;;6.62;94.45
51359;BME280;37448;51.588;7.248;2024-03-02T07:20:52;99503.47;;;6.67;93.72
51359;BME280;37448;51.588;7.248;2024-03-02T07:22:52;99496.56;;;6.67;89.37
51359;BME280;37448;51.588;7.248;2024-03-02T07:24:52;99506.81;;;6.72;89.07
51359;BME280;37448;51.588;7.248;2024-03-02T07:26:53;99510.03;;;6.85;88.45
51359;BME280;37448;51.588;7.248;2024-03-02T07:28:53;99510.44;;;7.09;94.27
51359;BME280;37448;51.588;7.248;2024-03-02T07:31:04;99508.34;;;7.26;89.00
51359;BME280;37448;51.588;7.248;2024-03-02T07:33:04;99512.66;;;7.65;89.53
51359;BME280;37448;51.588;7.248;2024-03-02T07:35:05;99520.69;;;7.92;87.79
51359;BME280;37448;51.588;7.248;2024-03-02T07:37:06;99519.88;;;8.25;84.74
51359;BME280;37448;51.588;7.248;2024-03-02T07:39:06;99505.66;;;8.73;93.12
51359;BME280;37448;51.588;7.248;2024-03-02T07:41:08;99513.59;;;8.98;83.30
51359;BME280;37448;51.588;7.248;2024-03-02T07:43:09;99518.53;;;9.38;82.98
51359;BME280;37448;51.588;7.248;2024-03-02T07:45:09;99515.66;;;9.75;86.50
51359;BME280;37448;51.588;7.248;2024-03-02T07:47:10;99510.03;;;10.15;88.00
51359;BME280;37448;51.588;7.248;2024-03-02T07:49:10;99514.63;;;10.33;76.51
51359;BME280;37448;51.588;7.248;2024-03-02T07:51:10;99505.78;;;10.63;89.54
51359;BME280;37448;51.588;7.248;2024-03-02T07:53:11;99509.25;;;10.87;85.53
51359;BME280;37448;51.588;7.248;2024-03-02T07:55:11;99516.06;;;11.15;84.67
51359;BME280;37448;51.588;7.248;2024-03-02T07:57:12;99513.63;;;11.34;82.10
51359;BME280;37448;51.588;7.248;2024-03-02T07:59:12;99519.84;;;11.54;76.37
51359;BME280;37448;51.588;7.248;2024-03-02T08:01:13;99530.38;;;11.75;76.32
51359;BME280;37448;51.588;7.248;2024-03-02T08:03:13;99532.47;;;11.87;73.20
51359;BME280;37448;51.588;7.248;2024-03-02T08:05:14;99535.22;;;11.84;72.09
51359;BME280;37448;51.588;7.248;2024-03-02T08:07:16;99534.81;;;11.94;67.76
51359;BME280;37448;51.588;7.248;2024-03-02T08:09:16;99535.13;;;12.08;67.52
51359;BME280;37448;51.588;7.248;2024-03-02T08:11:17;99529.16;;;12.47;80.08
51359;BME280;37448;51.588;7.248;2024-03-02T08:13:17;99527.44;;;12.46;69.66
51359;BME280;37448;51.588;7.248;2024-03-02T08:15:18;99529.78;;;12.73;74.05
51359;BME280;37448;51.588;7.248;2024-03-02T08:17:18;99530.28;;;12.82;64.46
51359;BME280;37448;51.588;7.248;2024-03-02T08:19:19;99535.41;;;13.04;72.68
51359;BME280;37448;51.588;7.248;2024-03-02T08:21:19;99529.28;;;13.24;75.29
51359;BME280;37448;51.588;7.248;2024-03-02T08:23:21;99535.84;;;13.14;59.88
51359;BME280;37448;51.588;7.248;2024-03-02T08:25:21;99543.84;;;13.11;64.55
51359;BME280;37448;51.588;7.248;2024-03-02T08:27:22;99541.22;;;13.11;66.39
51359;BME280;37448;51.588;7.248;2024-03-02T08:29:23;99548.38;;;13.26;75.14
51359;BME280;37448;51.588;7.248;2024-03-02T08:31:23;99549.47;;;13.22;73.28
51359;BME280;37448;51.588;7.248;2024-03-02T08:33:23;99546.56;;;13.28;72.75
51359;BME280;37448;51.588;7.248;2024-03-02T08:35:24;99552.84;;;13.24;62.29
51359;BME280;37448;51.588;7.248;2024-03-02T08:37:24;99550.28;;;13.42;72.15
51359;BME280;37448;51.588;7.248;2024-03-02T08:39:25;99550.50;;;13.37;71.60
51359;BME280;37448;51.588;7.248;2024-03-02T08:41:25;99555.25;;;13.48;64.15
51359;BME280;37448;51.588;7.248;2024-03-02T08:43:26;99551.19;;;13.79;65.17
51359;BME280;37448;51.588;7.248;2024-03-02T08:45:26;99548.63;;;14.14;71.90
51359;BME280;37448;51.588;7.248;2024-03-02T08:47:27;99559.25;;;14.29;67.96
51359;BME280;37448;51.588;7.248;2024-03-02T08:49:27;99559.56;;;14.58;60.77
51359;BME280;37448;51.588;7.248;2024-03-02T08:51:28;99559.38;;;14.96;79.08
51359;BME280;37448;51.588;7.248;2024-03-02T08:53:28;99557.13;;;15.06;70.17
51359;BME280;37448;51.588;7.248;2024-03-02T08:55:28;99557.59;;;14.97;62.17
51359;BME280;37448;51.588;7.248;2024-03-02T08:57:29;99569.00;;;15.29;75.40
51359;BME280;37448;51.588;7.248;2024-03-02T08:59:29;99560.75;;;15.19;60.74
51359;BME280;37448;51.588;7.248;2024-03-02T09:01:30;99560.13;;;15.48;61.98
51359;BME280;37448;51.588;7.248;2024-03-02T09:03:30;99559.84;;;16.01;77.40
51359;BME280;37448;51.588;7.248;2024-03-02T09:05:33;99555.81;;;15.95;64.48
51359;BME280;37448;51.588;7.248;2024-03-02T09:07:33;99551.22;;;15.99;64.42
51359;BME280;37448;51.588;7.248;2024-03-02T09:09:34;99563.16;;;16.04;58.18
51359;BME280;37448;51.588;7.248;2024-03-02T09:11:35;99556.56;;;15.81;60.02
51359;BME280;37448;51.588;7.248;2024-03-02T09:13:36;99564.59;;;15.94;62.97
51359;BME280;37448;51.588;7.248;2024-03-02T09:15:37;99564.63;;;16.25;67.06
51359;BME280;37448;51.588;7.248;2024-03-02T09:17:39;99561.50;;;15.87;61.98
51359;BME280;37448;51.588;7.248;2024-03-02T09:19:40;99559.97;;;15.83;59.38
51359;BME280;37448;51.588;7.248;2024-03-02T09:21:42;99554.88;;;15.80;65.60
51359;BME280;37448;51.588;7.248;2024-03-02T09:23:42;99567.53;;;15.73;59.16
51359;BME280;37448;51.588;7.248;2024-03-02T09:25:44;99570.00;;;16.07;69.32
51359;BME280;37448;51.588;7.248;2024-03-02T09:27:44;99571.50;;;15.81;52.03
51359;BME280;37448;51.588;7.248;2024-03-02T09:29:45;99574.63;;;15.87;52.49
51359;BME280;37448;51.588;7.248;2024-03-02T09:31:45;99571.97;;;16.03;60.54
51359;BME280;37448;51.588;7.248;2024-03-02T09:33:46;99571.13;;;16.03;63.16
51359;BME280;37448;51.588;7.248;2024-03-02T09:35:46;99580.38;;;16.10;65.13
51359;BME280;37448;51.588;7.248;2024-03-02T09:37:48;99579.06;;;16.17;68.76
51359;BME280;37448;51.588;7.248;2024-03-02T09:39:49;99572.69;;;16.21;65.57
51359;BME280;37448;51.588;7.248;2024-03-02T09:41:50;99574.00;;;16.14;57.53
51359;BME280;37448;51.588;7.248;2024-03-02T09:43:50;99575.19;;;16.39;64.02
51359;BME280;37448;51.588;7.248;2024-03-02T09:45:51;99570.50;;;16.44;66.14
51359;BME280;37448;51.588;7.248;2024-03-02T09:47:51;99568.50;;;16.64;59.56
51359;BME280;37448;51.588;7.248;2024-03-02T09:49:52;99569.09;;;16.98;60.53
51359;BME280;37448;51.588;7.248;2024-03-02T09:51:52;99580.78;;;17.09;58.14
51359;BME280;37448;51.588;7.248;2024-03-02T09:53:55;99571.72;;;16.98;57.64
51359;BME280;37448;51.588;7.248;2024-03-02T09:55:55;99564.22;;;17.21;66.86
51359;BME280;37448;51.588;7.248;2024-03-02T09:57:56;99566.66;;;17.10;67.21
51359;BME280;37448;51.588;7.248;2024-03-02T09:59:56;99561.91;;;17.44;66.60
51359;BME280;37448;51.588;7.248;2024-03-02T10:02:00;99553.47;;;17.39;65.02
51359;BME280;37448;51.588;7.248;2024-03-02T10:04:01;99555.84;;;17.71;72.34
51359;BME280;37448;51.588;7.248;2024-03-02T10:06:24;99552.72;;;17.36;53.23
51359;BME280;37448;51.588;7.248;2024-03-02T10:08:25;99555.13;;;17.54;65.49
51359;BME280;37448;51.588;7.248;2024-03-02T10:10:34;99558.13;;;17.62;61.85
51359;BME280;37448;51.588;7.248;2024-03-02T10:12:36;99560.97;;;17.59;57.04
51359;BME280;37448;51.588;7.248;2024-03-02T10:14:36;99551.97;;;17.76;66.35
51359;BME280;37448;51.588;7.248;2024-03-02T10:16:38;99558.66;;;17.40;56.50
51359;BME280;37448;51.588;7.248;2024-03-02T10:18:38;99557.09;;;17.65;62.21
51359;BME280;37448;51.588;7.248;2024-03-02T10:20:40;99556.66;;;17.44;52.66
51359;BME280;37448;51.588;7.248;2024-03-02T10:22:40;99555.19;;;17.67;64.68
51359;BME280;37448;51.588;7.248;2024-03-02T10:24:42;99549.81;;;17.96;67.95
51359;BME280;37448;51.588;7.248;2024-03-02T10:26:44;99560.13;;;17.86;56.65
51359;BME280;37448;51.588;7.248;2024-03-02T10:28:47;99561.38;;;18.08;52.21
51359;BME280;37448;51.588;7.248;2024-03-02T10:30:48;99556.09;;;18.48;63.24
51359;BME280;37448;51.588;7.248;2024-03-02T10:32:50;99551.84;;;18.33;58.95
51359;BME280;37448;51.588;7.248;2024-03-02T10:34:50;99551.78;;;18.07;50.15
51359;BME280;37448;51.588;7.248;2024-03-02T10:36:50;99541.22;;;18.07;51.96
51359;BME280;37448;51.588;7.248;2024-03-02T10:38:52;99542.66;;;18.26;61.38
51359;BME280;37448;51.588;7.248;2024-03-02T10:40:56;99531.47;;;18.22;57.92
51359;BME280;37448;51.588;7.248;2024-03-02T10:42:59;99541.22;;;18.07;52.73
51359;BME280;37448;51.588;7.248;2024-03-02T10:45:01;99548.63;;;18.02;44.12
51359;BME280;37448;51.588;7.248;2024-03-02T10:47:04;99545.47;;;18.22;54.03
51359;BME280;37448;51.588;7.248;2024-03-02T10:49:06;99538.56;;;17.79;60.95
51359;BME280;37448;51.588;7.248;2024-03-02T10:51:06;99534.94;;;17.68;65.39